Etusivu
METAR-TAF:

METAR-TAF

Lentoasemat :

Victoria Harbour, Brittiläinen Kolumbia, Kanada

Leveyspiiri: 48-25N, Pituuspiiri: 123-20W, korkeus merenpinnasta: 5 m

Tämänhetkinen sää

Tämä raportti tehtiin 32 minuuttia sitten, kello 14.00 UTC
Tuuli 3 kn koillisesta
Lämpötila 11°C
Kosteus 94%
Ilmanpaine 1020 hPa
Näkyvyys: 24.1 km
selkeää

METAR: CYWH 291400Z 04003KT 15SM SKC 11/10 A3012 RMK SLP203

Aika: 07:32 (14:32 UTC)

Sääennuste

Tämä raportti tehtiin 22 minuuttia sitten, kello 14.10 UTC
Ennuste voimassa 29. päivästä klo 14 UTC - 30. päivään klo 02 UTC
Tuuli 3 kn eri suunnista
Näkyvyys: 10 km
selkeää
Tulossa
29. päivästä klo 16 UTC - 29. päivään klo 18 UTC
Tuuli 8 kn koillisesta

TAF: CYWH 291410Z 2914/3002 VRB03KT P6SM SKC BECMG 2916/2918 04008KT RMK NXT FCST BY 292100Z

Säähavainnot ja -ennusteet yli 4000 lentoasemalta (METAR- ja TAF-raportit).

Käytössä olevat sääasemat on merkitty karttaan keltaisilla ja punaisilla pisteillä.

Aseta hiiri pisteen päälle nähdäksesi sääaseman nimen.

Klikkaa sitten nähdäksesi säähavainnot ja -ennusteet.

Kartan vaihtaminen: klikkaa mustalla rastilla varustettuja vihreitä pisteitä, niin voit zoomata sisään; viivalla varustettua vihreää pistettä, niin voit zoomata ulos tai vihreitä nuolia, niin pääset viereisille kartoille.


METAR-TAF: